Estación Meteorológica Peña el Pijo (Robertgarden) [ 01/30/23 15:11:55 CET ]

Fecha Hora Presion(HPa) Temp (°C) Humedad % Rocio (°C) Viento ( m/s) Direccion Lluvia 1Hora(mm) Lluvia 24H(mm) LLuvia Total(mm)
2012-Aug-13 01:01:13 1011.700 16.6 33 0.1         176.12
2012-Aug-13 02:01:18 1011.400 15.2 36 0.1         176.12
2012-Aug-13 03:03:12 1010.900 16.1 34 0.1         176.12
2012-Aug-13 04:01:12 1010.800 14.9 37 0.2         176.12
2012-Aug-13 05:01:16 1010.600 12.8 44 0.8         176.12
2012-Aug-13 06:01:16 1010.500 11.8 47 0.8         176.12
2012-Aug-13 07:01:12 1010.600 12.3 48 1.6         176.12
2012-Aug-13 08:01:12 1010.900 11.5 53 2.2         176.12
2012-Aug-13 09:01:17 1010.800 18.8 43 5.9         176.12
2012-Aug-13 10:01:18 1011.000 26.2 32 8.1         176.12
2012-Aug-13 11:01:17 1010.500 28.1 23 4.8         176.12
2012-Aug-13 12:01:17 1010.600 30.5 19 4.1 1.8 SW     176.12
2012-Aug-13 13:01:10 1010.600 31.9 16 2.3 1.3 ESE     176.12
2012-Aug-13 14:01:19 1010.100 33.3 15 2.5         176.12
2012-Aug-13 15:01:18 1009.700 34.3 13 1.3         176.12
2012-Aug-13 16:01:17 1009.300 34.9 12 0.8         176.12
2012-Aug-13 17:01:12 1009.300 35.2 12 1.0         176.12
2012-Aug-13 18:01:13 1009.300 34.3 13 1.3         176.12
2012-Aug-13 19:01:13 1009.100 32.7 14 1.0         176.12
2012-Aug-13 20:01:14 1009.300 29.5 15 -0.6         176.12
2012-Aug-13 21:01:13 1009.700 25.8 22 2.3         176.12
2012-Aug-13 22:01:13 1010.600 21.3 30 3.1         176.12
2012-Aug-13 23:01:12 1011.400 19.0 31 1.5         176.12

Temperatura Máxima:35°    Temperatura Mínima:11°
Presión Máxima:1011.700 Hpa    Presión Mínima:1009.100 Hpa


Volver